الصفحة الرئيسية
METAR-TAF:

METAR-TAF

مطار :

أوديسا, أوكرانيا

دائرة عرض: 46-26N, خط طول: 030-46E, ارتفاع: 42 متر

مراقبة الطقس الحالي

تاريخ ووقت الإصدار 32 دقيقة قبل الساعة 11:30UTC
ريح 12 عقدة من الشرق, الاتجاه يتراوح بين الشرق/الشمال الشرقي و الشرق/الجنوب الشرقي
درجة الحرارة 23°درجة مئوية
الرطوبة 27%
ضغط 1021 hPa
الرؤية 10 كم أو أكثر
الغيوم لا تقل 1500 م ولا وجود لمزنة ركامية السحاب الأسود

METAR: UKOO 271130Z 09006MPS 060V120 CAVOK 23/03 Q1021 R16/090060 NOSIG

زمن: 15:02 (12:02 UTC)

توقعات

تاريخ ووقت الإصدار 59 دقيقة قبل الساعة 11:03UTC
التوقعات صالحة من27 الساعة 12 UTC إلى 28 الساعة 12 UTC
ريح 14 عقدة من الشرق تتزايد حتى 27 عقدة
الرؤية: 6000 متر
غيوم متفرقة على ارتفاع 1000 قدم
أصبح
من 27 الساعة 17 UTC إلى 27 الساعة 18 UTC
ريح 6 عقدة من الشمال الشرقي
الرؤية: 3000 متر
غشاء, دخان

TAF: UKOO 271103Z 2712/2812 08007G14MPS 6000 SCT010 TX25/2712Z TN15/2803Z BECMG 2717/2718 04003MPS 3000 BR FU

أرصاد الطقس والتوقعات من أكثر من 4000 مطار (تقارير الطقس للمطار METAR والتنبؤ بالطقس بالمطارTAF).

المحطات المتاحة هي النقط الصفراء والحمراء على الخريطة.

حرك المؤشر فوق النقطة لمعرفة اسم المحطة.

ثم انقر لمعرفة أرصاد وتوقعات الطقس.

لتغيير الخارطة: اضغط على الأزرار الخضراء مع رمز الصليب الأسود للتكبير. على الزر الأخضر مع شرطة للتصغير، أو على الأسهم الخضراء للخرائط المجاورة.


METAR-TAF: